Time;durP1;ratioP1;P1;durP2;ratioP2;P2;SDS_P1;SDS_P2;PMS_P1;PMS_P2;Temp;Humidity;BMP_temperature;BMP_pressure;BME280_temperature;BME280_humidity;BME280_pressure;Samples;Min_cycle;Max_cycle;Signal;HPM_P1;HPM_P2
2022/06/04 00:33:00;;;;;;;;;;;18.00;99.90;;;;;;5309284;27;20477;-77
2022/06/04 00:35:32;;;;;;;18.48;10.40;;;18.20;99.90;;;;;;5308677;28;19907;-76
2022/06/04 00:38:07;;;;;;;14.50;9.07;;;18.50;99.90;;;;;;5308603;28;20031;-76
2022/06/04 00:40:48;;;;;;;16.30;8.90;;;18.60;99.90;;;;;;5308599;28;20031;-76
2022/06/04 00:43:20;;;;;;;15.52;8.75;;;18.60;99.90;;;;;;5308246;28;20102;-77
2022/06/04 00:46:15;;;;;;;17.02;9.00;;;18.60;99.90;;;;;;5308710;28;20039;-77
2022/06/04 00:48:46;;;;;;;17.02;8.60;;;18.70;99.90;;;;;;5308626;28;20050;-76
2022/06/04 00:51:16;;;;;;;23.50;9.38;;;18.70;99.90;;;;;;5273061;28;20475;-76
2022/06/04 00:53:47;;;;;;;25.80;8.95;;;18.70;99.90;;;;;;5308154;28;20020;-76
2022/06/04 00:56:28;;;;;;;14.30;8.38;;;18.90;99.90;;;;;;5308607;28;20352;-76
2022/06/04 00:59:35;;;;;;;16.10;7.38;;;19.00;99.90;;;;;;5308078;27;20475;-76
2022/06/04 01:02:15;;;;;;;13.88;7.10;;;19.60;99.90;;;;;;5307938;28;20476;-76
2022/06/04 01:05:14;;;;;;;13.65;6.55;;;19.30;99.90;;;;;;5308120;28;20053;-76
2022/06/04 01:07:58;;;;;;;11.32;6.10;;;19.40;99.90;;;;;;5271210;27;20034;-76
2022/06/04 01:11:09;;;;;;;11.65;6.63;;;19.50;99.90;;;;;;5308148;27;20027;-76
2022/06/04 01:13:51;;;;;;;12.13;5.88;;;19.50;99.90;;;;;;5307832;28;20067;-76
2022/06/04 01:16:55;;;;;;;15.38;6.20;;;19.60;99.90;;;;;;5307986;28;20520;-76
2022/06/04 01:19:32;;;;;;;14.10;6.97;;;19.70;99.90;;;;;;5307929;27;20431;-76
2022/06/04 01:22:25;;;;;;;15.77;6.22;;;19.60;99.90;;;;;;5307636;28;20393;-76
2022/06/04 02:05:03;;;;;;;12.38;5.75;;;20.20;99.90;;;;;;5204230;28;20462;-74
2022/06/04 02:07:41;;;;;;;15.57;5.95;;;20.40;99.90;;;;;;5204232;28;20037;-77
2022/06/04 02:10:44;;;;;;;10.32;5.40;;;20.40;99.90;;;;;;5204148;28;20033;-76
2022/06/04 02:13:16;;;;;;;8.55;4.78;;;20.40;99.90;;;;;;5178951;28;20050;-76
2022/06/04 02:15:59;;;;;;;12.05;5.30;;;20.40;99.90;;;;;;5183577;28;20018;-77
2022/06/04 02:18:30;;;;;;;12.05;5.80;;;20.50;99.90;;;;;;5183862;28;20105;-76
2022/06/04 02:21:01;;;;;;;12.25;5.35;;;20.50;99.90;;;;;;5183643;28;20161;-76
2022/06/04 02:23:34;;;;;;;11.45;5.50;;;20.40;99.90;;;;;;5183754;28;20116;-76
2022/06/04 02:26:05;;;;;;;10.05;5.03;;;20.50;99.90;;;;;;5183436;28;20030;-76
2022/06/04 02:28:36;;;;;;;13.02;5.28;;;20.50;99.90;;;;;;5183397;28;20029;-76
2022/06/04 02:31:22;;;;;;;16.33;5.15;;;20.60;99.90;;;;;;5184099;28;20053;-76
2022/06/04 02:34:27;;;;;;;18.00;5.55;;;20.60;99.90;;;;;;5183144;28;20513;-76
2022/06/04 02:37:09;;;;;;;15.55;6.53;;;20.60;99.90;;;;;;5183528;28;20502;-76
2022/06/04 02:39:45;;;;;;;19.73;6.30;;;20.60;99.90;;;;;;5183465;28;20026;-77
2022/06/04 02:42:25;;;;;;;12.15;5.32;;;20.60;99.90;;;;;;5182115;28;20052;-76
2022/06/04 02:45:14;;;;;;;12.55;5.85;;;20.60;99.90;;;;;;5183236;28;20026;-76
2022/06/04 02:47:55;;;;;;;16.88;5.53;;;20.70;99.90;;;;;;5183388;28;20034;-76
2022/06/04 02:50:35;;;;;;;15.27;5.05;;;20.70;99.90;;;;;;5183349;28;20458;-76
2022/06/04 02:53:06;;;;;;;;;;;20.80;99.90;;;;;;5183323;28;20041;-76
2022/06/04 02:56:01;;;;;;;19.85;5.88;;;20.70;99.90;;;;;;5182794;28;19905;-76
2022/06/04 02:58:34;;;;;;;16.85;5.82;;;20.70;99.90;;;;;;5182641;28;20042;-76
2022/06/04 03:01:09;;;;;;;14.65;5.35;;;20.70;99.90;;;;;;5185116;28;20052;-76
2022/06/04 03:03:40;;;;;;;14.48;5.80;;;20.80;99.90;;;;;;5202128;28;20063;-77
2022/06/04 03:06:23;;;;;;;15.93;6.47;;;20.70;99.90;;;;;;5189212;28;20029;-76
2022/06/04 03:08:54;;;;;;;31.58;5.93;;;20.70;99.90;;;;;;5189680;28;20064;-76
2022/06/04 03:11:26;;;;;;;11.48;4.85;;;20.70;99.90;;;;;;5189400;28;20057;-76
2022/06/04 03:13:57;;;;;;;14.35;5.60;;;20.70;99.90;;;;;;5189499;28;20053;-76
2022/06/04 03:16:36;;;;;;;15.27;5.75;;;20.70;99.90;;;;;;5189218;28;20469;-76
2022/06/04 03:19:08;;;;;;;15.67;6.83;;;20.70;99.90;;;;;;5189395;28;20112;-76
2022/06/04 03:21:42;;;;;;;15.23;5.07;;;20.80;99.90;;;;;;5189429;28;20092;-76
2022/06/04 03:24:14;;;;;;;12.35;5.40;;;20.80;99.90;;;;;;5189169;28;20034;-76
2022/06/04 03:26:45;;;;;;;10.63;5.72;;;20.80;99.90;;;;;;5189038;28;20022;-76
2022/06/04 03:29:15;;;;;;;12.65;6.03;;;20.80;99.90;;;;;;5189337;28;20518;-76
2022/06/04 03:31:46;;;;;;;13.38;5.80;;;20.90;99.90;;;;;;5188891;28;20088;-76
2022/06/04 03:34:17;;;;;;;10.55;5.40;;;20.90;99.90;;;;;;5188860;28;20382;-76
2022/06/04 03:36:48;;;;;;;12.88;5.53;;;20.90;99.90;;;;;;5188865;28;20014;-76
2022/06/04 03:39:19;;;;;;;14.82;5.60;;;20.90;99.90;;;;;;5188812;28;20432;-76
2022/06/04 03:41:49;;;;;;;13.10;5.82;;;20.90;99.90;;;;;;5188961;28;20064;-76
2022/06/04 03:44:20;;;;;;;12.60;5.75;;;20.90;99.90;;;;;;5188662;28;20042;-76
2022/06/04 03:46:53;;;;;;;15.25;6.10;;;20.90;99.90;;;;;;5188748;28;20040;-76
2022/06/04 03:49:23;;;;;;;17.02;5.57;;;21.00;99.90;;;;;;5189040;28;20022;-76
2022/06/04 03:51:54;;;;;;;13.30;5.65;;;21.10;99.90;;;;;;5188751;28;20029;-76
2022/06/04 04:00:24;;;;;;;13.00;5.95;;;21.00;99.90;;;;;;5188822;28;20056;-76
2022/06/04 04:02:59;;;;;;;11.88;5.75;;;21.10;99.90;;;;;;5188161;28;20042;-76
2022/06/04 04:05:35;;;;;;;20.77;6.13;;;21.10;99.90;;;;;;5188360;28;20108;-76
2022/06/04 04:08:09;;;;;;;13.95;5.30;;;21.20;99.90;;;;;;5188321;28;20026;-76
2022/06/04 04:10:41;;;;;;;13.10;5.63;;;21.20;99.90;;;;;;5188117;28;20097;-76
2022/06/04 04:13:14;;;;;;;14.50;5.93;;;21.30;99.90;;;;;;5186870;28;20033;-76
2022/06/04 04:15:45;;;;;;;11.85;5.50;;;21.30;99.90;;;;;;5185943;28;20026;-76
2022/06/04 04:18:16;;;;;;;13.88;5.28;;;21.20;99.90;;;;;;5187998;28;20073;-76
2022/06/04 04:20:48;;;;;;;15.65;5.85;;;21.20;99.90;;;;;;5187298;28;20026;-76
2022/06/04 04:23:18;;;;;;;14.18;5.78;;;21.20;99.90;;;;;;5187952;28;20034;-76
2022/06/04 04:25:49;;;;;;;13.95;5.97;;;21.20;99.90;;;;;;5187936;28;20105;-76
2022/06/04 04:28:20;;;;;;;15.45;6.00;;;21.20;99.90;;;;;;5188301;28;20079;-76
2022/06/04 04:30:51;;;;;;;17.98;5.97;;;21.20;99.90;;;;;;5187808;28;20024;-77
2022/06/04 04:33:22;;;;;;;16.20;6.00;;;21.20;99.90;;;;;;5188179;28;20046;-74
2022/06/04 04:35:53;;;;;;;13.50;6.28;;;21.30;99.90;;;;;;5187603;28;20030;-74
2022/06/04 04:38:23;;;;;;;14.88;6.03;;;21.30;99.90;;;;;;5187764;28;20038;-76
2022/06/04 04:40:55;;;;;;;17.65;6.18;;;21.30;99.90;;;;;;5187638;28;20018;-77
2022/06/04 04:43:25;;;;;;;16.08;6.00;;;21.40;99.90;;;;;;5187959;28;20068;-76
2022/06/04 04:46:01;;;;;;;16.00;6.28;;;21.30;99.90;;;;;;5187680;28;20108;-76
2022/06/04 04:48:32;;;;;;;16.92;6.10;;;21.40;99.90;;;;;;5187562;28;20385;-76
2022/06/04 04:51:04;;;;;;;20.95;6.25;;;21.30;99.90;;;;;;5187523;28;20022;-76
2022/06/04 04:53:35;;;;;;;18.42;6.60;;;21.40;99.90;;;;;;5187260;28;20040;-76
2022/06/04 04:56:06;;;;;;;16.23;6.43;;;21.40;99.90;;;;;;5187519;28;20105;-76
2022/06/04 04:58:37;;;;;;;20.77;6.82;;;21.40;99.90;;;;;;5187467;28;20080;-76
2022/06/04 05:01:23;;;;;;;19.48;6.65;;;21.50;99.90;;;;;;5187436;28;20026;-77
2022/06/04 05:03:58;;;;;;;19.88;6.72;;;21.50;99.90;;;;;;5186932;28;20061;-77
2022/06/04 05:06:33;;;;;;;22.27;6.70;;;21.40;99.90;;;;;;5186918;28;20465;-77
2022/06/04 05:09:10;;;;;;;17.13;7.30;;;21.40;99.90;;;;;;5186815;28;20037;-74
2022/06/04 05:11:45;;;;;;;15.90;6.55;;;21.40;99.90;;;;;;5186702;28;20032;-74
2022/06/04 05:14:16;;;;;;;11.35;6.82;;;21.20;99.90;;;;;;5186886;28;20042;-76
2022/06/04 05:16:47;;;;;;;20.95;6.68;;;21.20;99.90;;;;;;5187145;28;20030;-76
2022/06/04 05:19:17;;;;;;;14.50;7.05;;;21.30;99.90;;;;;;5187055;28;20032;-76
2022/06/04 05:21:53;;;;;;;15.90;7.80;;;21.30;99.90;;;;;;5186843;28;20028;-77
2022/06/04 05:24:35;;;;;;;17.17;7.40;;;21.40;99.90;;;;;;5186738;28;20370;-76
2022/06/04 05:27:06;;;;;;;20.00;7.47;;;21.50;99.90;;;;;;5186672;28;20033;-77
2022/06/04 05:29:37;;;;;;;21.40;7.35;;;21.50;99.90;;;;;;5186917;28;20081;-74
2022/06/04 05:32:11;;;;;;;19.63;7.18;;;21.50;99.90;;;;;;5187296;28;20174;-80
2022/06/04 05:34:42;;;;;;;22.02;7.55;;;21.50;99.90;;;;;;5187771;28;20379;-79
2022/06/04 05:37:13;;;;;;;15.48;8.40;;;21.40;99.90;;;;;;5187475;28;20026;-79
2022/06/04 05:39:44;;;;;;;20.50;7.85;;;21.30;99.90;;;;;;5187204;28;20042;-79
2022/06/04 05:42:15;;;;;;;21.92;7.55;;;21.40;99.90;;;;;;5187008;28;20026;-80
2022/06/04 05:44:46;;;;;;;16.38;7.72;;;21.50;99.90;;;;;;5186857;28;20396;-79
2022/06/04 05:47:17;;;;;;;21.80;7.38;;;21.60;99.90;;;;;;5186750;28;20018;-81
2022/06/04 05:49:48;;;;;;;19.98;7.97;;;21.50;99.90;;;;;;5186686;28;20029;-81
2022/06/04 05:52:20;;;;;;;22.35;8.02;;;21.50;99.90;;;;;;5186666;28;20073;-80
2022/06/04 05:54:51;;;;;;;19.92;8.65;;;21.40;99.90;;;;;;5186527;28;20030;-80
2022/06/04 05:57:22;;;;;;;26.60;8.70;;;21.30;99.90;;;;;;5186827;28;20573;-81
2022/06/04 05:59:52;;;;;;;22.73;8.90;;;21.30;99.90;;;;;;5186598;28;20022;-80
2022/06/04 06:02:23;;;;;;;30.27;9.75;;;21.40;99.90;;;;;;5186469;28;20030;-79
2022/06/04 06:04:54;;;;;;;27.88;9.73;;;21.50;99.90;;;;;;5186482;28;20049;-79
2022/06/04 06:07:25;;;;;;;30.02;10.45;;;21.50;99.90;;;;;;5185277;28;20022;-81
2022/06/04 06:09:56;;;;;;;23.75;10.10;;;21.50;99.90;;;;;;5186527;28;20489;-80
2022/06/04 06:12:26;;;;;;;18.10;8.77;;;21.40;99.90;;;;;;5186777;28;20489;-79
2022/06/04 06:14:57;;;;;;;21.63;10.10;;;21.30;99.90;;;;;;5186410;28;20033;-80
2022/06/04 06:17:28;;;;;;;27.67;10.32;;;21.30;99.90;;;;;;5186110;28;20438;-79
2022/06/04 06:19:59;;;;;;;31.05;11.93;;;21.30;99.90;;;;;;5186545;28;20366;-77
2022/06/04 06:22:29;;;;;;;19.67;9.77;;;21.30;99.90;;;;;;5186590;28;20102;-77
2022/06/04 06:25:05;;;;;;;26.20;11.38;;;21.30;99.90;;;;;;5186265;28;20083;-77
2022/06/04 06:27:35;;;;;;;26.88;11.07;;;21.20;99.90;;;;;;5186470;28;20339;-79
2022/06/04 06:30:07;;;;;;;24.20;11.18;;;21.30;99.90;;;;;;5186273;28;20033;-79
2022/06/04 06:32:40;;;;;;;26.13;10.63;;;21.40;99.90;;;;;;5186196;28;20034;-79
2022/06/04 06:35:11;;;;;;;27.38;11.13;;;21.30;99.90;;;;;;5186349;28;20033;-78
2022/06/04 06:37:41;;;;;;;27.25;11.52;;;21.30;99.90;;;;;;5180020;28;20034;-79
2022/06/04 06:40:12;;;;;;;24.02;10.57;;;21.40;99.90;;;;;;5167623;28;20032;-78
2022/06/04 06:42:43;;;;;;;24.52;10.65;;;21.50;99.90;;;;;;5169697;28;20030;-78
2022/06/04 06:45:14;;;;;;;23.65;11.30;;;21.40;99.90;;;;;;5170038;28;20033;-78
2022/06/04 06:47:45;;;;;;;23.75;9.80;;;21.50;99.90;;;;;;5169626;28;20027;-78
2022/06/04 06:50:16;;;;;;;24.40;10.13;;;21.50;99.90;;;;;;5169723;28;20390;-78
2022/06/04 06:52:47;;;;;;;28.33;11.30;;;21.60;99.90;;;;;;5169769;28;20030;-78
2022/06/04 06:55:18;;;;;;;24.05;10.38;;;21.60;99.90;;;;;;5169348;28;20045;-79
2022/06/04 06:57:49;;;;;;;28.77;11.45;;;21.60;99.90;;;;;;5169728;28;20097;-78
2022/06/04 07:00:20;;;;;;;20.92;10.45;;;21.40;99.90;;;;;;5169366;28;20038;-77
2022/06/04 07:02:51;;;;;;;25.40;10.30;;;21.60;99.90;;;;;;5169079;28;20050;-78
2022/06/04 07:05:22;;;;;;;23.77;10.77;;;21.70;99.90;;;;;;5169356;28;20042;-79
2022/06/04 07:07:52;;;;;;;27.02;11.60;;;21.70;99.90;;;;;;5169212;28;20053;-78
2022/06/04 07:10:23;;;;;;;22.23;10.32;;;21.60;99.90;;;;;;5168011;28;20030;-79
2022/06/04 07:12:54;;;;;;;21.20;10.93;;;21.70;99.90;;;;;;5169070;28;20120;-77
2022/06/04 07:15:25;;;;;;;22.10;10.88;;;21.70;99.90;;;;;;5167778;28;20033;-78
2022/06/04 07:17:55;;;;;;;25.20;10.30;;;21.60;99.90;;;;;;5169067;28;20089;-77
2022/06/04 07:20:26;;;;;;;28.70;11.20;;;21.60;99.90;;;;;;5169020;28;20030;-79
2022/06/04 07:22:57;;;;;;;19.15;10.40;;;21.50;99.90;;;;;;5168918;28;20445;-78
2022/06/04 07:25:28;;;;;;;26.90;10.43;;;21.50;99.90;;;;;;5169080;28;20418;-78
2022/06/04 07:27:58;;;;;;;26.77;11.80;;;21.30;99.90;;;;;;5168920;28;20031;-78
2022/06/04 07:30:30;;;;;;;26.20;10.23;;;21.30;99.90;;;;;;5168962;28;20041;-79
2022/06/04 07:33:00;;;;;;;41.38;12.38;;;21.40;99.90;;;;;;5168663;28;20113;-77
2022/06/04 07:35:32;;;;;;;27.38;12.43;;;21.50;99.90;;;;;;5168718;28;20134;-78
2022/06/04 07:38:02;;;;;;;26.95;11.70;;;21.40;99.90;;;;;;5169449;28;20089;-78
2022/06/04 07:40:37;;;;;;;21.80;10.65;;;21.50;99.90;;;;;;5168741;28;20026;-78
2022/06/04 07:43:08;;;;;;;24.67;9.90;;;21.50;99.90;;;;;;5168660;28;20022;-79
2022/06/04 07:45:40;;;;;;;26.95;10.38;;;21.60;99.90;;;;;;5168847;28;20081;-78
2022/06/04 07:48:12;;;;;;;29.05;11.07;;;21.50;99.90;;;;;;5168580;28;20105;-79
2022/06/04 07:50:42;;;;;;;27.15;11.40;;;21.50;99.90;;;;;;5168421;28;20470;-79
2022/06/04 07:53:13;;;;;;;33.83;11.27;;;21.50;99.90;;;;;;5168417;28;20030;-78
2022/06/04 07:55:44;;;;;;;25.65;10.57;;;21.50;99.90;;;;;;5168301;28;20023;-79
2022/06/04 07:58:15;;;;;;;26.73;11.07;;;21.40;99.90;;;;;;5168354;28;20014;-79
2022/06/04 08:00:45;;;;;;;22.58;11.15;;;21.50;99.90;;;;;;5168331;28;20124;-79
2022/06/04 08:03:16;;;;;;;21.10;10.30;;;21.50;99.90;;;;;;5167730;28;20065;-79
2022/06/04 08:05:49;;;;;;;23.02;11.20;;;21.60;99.90;;;;;;5168449;28;20026;-79
2022/06/04 08:08:20;;;;;;;23.05;11.15;;;21.60;99.90;;;;;;5168279;28;20038;-77
2022/06/04 08:10:51;;;;;;;30.85;11.88;;;21.40;99.90;;;;;;5166816;28;20110;-79
2022/06/04 08:13:25;;;;;;;22.35;11.45;;;21.60;99.90;;;;;;5167903;28;20067;-78
2022/06/04 08:15:59;;;;;;;21.05;11.15;;;21.60;99.90;;;;;;5168069;28;20479;-78
2022/06/04 08:18:29;;;;;;;28.13;10.75;;;21.60;99.90;;;;;;5168208;28;20041;-78
2022/06/04 08:21:07;;;;;;;18.50;10.85;;;21.60;99.90;;;;;;5168032;28;20026;-78
2022/06/04 08:23:39;;;;;;;18.33;10.27;;;21.70;99.90;;;;;;5167480;28;20117;-77
2022/06/04 08:26:11;;;;;;;20.65;10.57;;;21.70;99.90;;;;;;5167722;28;20022;-78
2022/06/04 08:28:42;;;;;;;32.10;11.27;;;21.60;99.90;;;;;;5167748;28;20035;-79
2022/06/04 08:31:14;;;;;;;81.78;21.65;;;21.60;99.90;;;;;;5167895;28;20023;-77
2022/06/04 08:33:45;;;;;;;33.05;11.55;;;21.60;99.90;;;;;;5167446;28;20042;-78
2022/06/04 08:36:16;;;;;;;20.60;10.00;;;21.60;99.90;;;;;;5167579;28;20027;-78
2022/06/04 08:38:48;;;;;;;25.42;10.98;;;21.30;99.90;;;;;;5167849;28;20070;-79
2022/06/04 08:41:26;;;;;;;22.30;10.20;;;21.60;99.90;;;;;;5167871;28;20471;-78
2022/06/04 08:44:35;;;;;;;18.92;10.85;;;21.40;99.90;;;;;;5166156;28;20056;-79
2022/06/04 08:47:25;;;;;;;32.38;10.95;;;21.50;99.90;;;;;;5167423;28;20018;-79
2022/06/04 08:50:22;;;;;;;23.63;10.35;;;21.60;99.90;;;;;;5167601;28;20037;-80
2022/06/04 08:53:00;;;;;;;22.45;11.60;;;21.60;99.90;;;;;;5165734;28;20089;-80
2022/06/04 08:59:38;;;;;;;18.30;9.98;;;21.60;99.90;;;;;;5167244;28;20081;-78
2022/06/04 09:02:33;;;;;;;18.33;9.95;;;21.60;99.90;;;;;;5165964;28;20045;-78
2022/06/04 09:05:24;;;;;;;18.23;9.43;;;21.70;99.90;;;;;;5167004;28;20542;-78
2022/06/04 09:08:01;;;;;;;24.00;9.30;;;21.90;99.90;;;;;;5167151;28;20037;-78
2022/06/04 09:10:48;;;;;;;19.48;8.57;;;21.90;99.90;;;;;;5166865;28;20113;-78
2022/06/04 09:13:35;;;;;;;24.83;10.32;;;22.10;99.90;;;;;;5166941;28;20513;-78
2022/06/04 09:16:39;;;;;;;20.80;9.40;;;22.30;99.90;;;;;;5166803;28;20037;-78
2022/06/04 09:19:22;;;;;;;23.48;8.75;;;22.40;99.90;;;;;;5166897;28;20053;-78
2022/06/04 09:21:53;;;;;;;27.33;9.63;;;22.20;99.90;;;;;;5166710;28;20019;-79
2022/06/04 09:24:25;;;;;;;26.00;9.10;;;22.40;99.90;;;;;;5166669;28;20026;-78
2022/06/04 09:27:02;;;;;;;18.75;8.77;;;22.30;99.90;;;;;;5165819;28;20032;-79
2022/06/04 09:29:57;;;;;;;22.50;9.02;;;22.30;99.90;;;;;;5165582;28;20436;-79
2022/06/04 09:32:48;;;;;;;20.70;8.68;;;22.40;99.90;;;;;;5165365;28;20038;-79
2022/06/04 09:35:25;;;;;;;40.75;10.95;;;22.20;99.90;;;;;;5166694;28;20038;-78
2022/06/04 09:37:56;;;;;;;28.23;8.98;;;22.20;99.90;;;;;;5166524;28;20437;-79
2022/06/04 09:40:32;;;;;;;19.85;9.15;;;22.00;99.90;;;;;;5166861;28;20109;-78
2022/06/04 09:43:17;;;;;;;27.25;9.85;;;22.10;99.90;;;;;;5166515;28;20085;-77
2022/06/04 09:45:58;;;;;;;20.08;9.88;;;22.10;99.90;;;;;;5165247;28;20026;-77
2022/06/04 09:48:35;;;;;;;18.77;9.35;;;22.30;99.90;;;;;;5165372;28;20050;-79
2022/06/04 09:51:17;;;;;;;24.92;9.88;;;22.20;99.90;;;;;;5166396;28;20053;-79
2022/06/04 09:53:53;;;;;;;60.42;14.50;;;22.20;99.90;;;;;;5166366;28;20030;-79
2022/06/04 09:56:49;;;;;;;18.27;10.23;;;22.20;99.90;;;;;;5166284;28;20029;-78
2022/06/04 09:59:24;;;;;;;17.23;9.15;;;22.10;99.90;;;;;;5166298;28;20026;-77
2022/06/04 10:02:02;;;;;;;28.95;10.60;;;22.00;99.90;;;;;;5166312;28;20030;-75
2022/06/04 10:04:39;;;;;;;17.85;10.35;;;22.00;99.90;;;;;;5165852;28;20050;-81
2022/06/04 10:07:14;;;;;;;20.65;10.02;;;21.90;99.90;;;;;;5166125;28;20503;-75
2022/06/04 10:09:57;;;;;;;51.25;13.93;;;22.10;99.90;;;;;;5166050;28;20030;-75
2022/06/04 10:13:42;;;;;;;19.02;10.02;;;22.30;99.90;;;;;;5166077;28;20389;-80
2022/06/04 10:15:30;;;;;;;19.30;10.13;;;22.30;99.90;;;;;;5167976;28;20030;-80
2022/06/04 10:18:06;;;;;;;23.13;10.48;;;22.50;99.90;;;;;;5170136;28;20026;-76
2022/06/04 10:20:38;;;;;;;25.00;10.30;;;22.30;99.90;;;;;;5170046;28;20062;-78
2022/06/04 10:23:14;;;;;;;17.50;10.70;;;22.40;99.90;;;;;;5170079;28;20084;-76
2022/06/04 10:26:16;;;;;;;22.38;10.77;;;22.30;99.90;;;;;;5170106;28;20088;-79
2022/06/04 10:29:00;;;;;;;20.45;10.57;;;22.40;99.90;;;;;;5170027;28;20026;-75
2022/06/04 10:31:52;;;;;;;18.70;9.55;;;22.80;99.90;;;;;;5169998;28;20027;-76
2022/06/04 10:35:00;;;;;;;36.58;10.30;;;22.70;99.90;;;;;;5168341;28;20046;-75
2022/06/04 10:37:53;;;;;;;17.05;11.00;;;22.50;99.90;;;;;;5169656;28;20113;-78
2022/06/04 10:40:39;;;;;;;20.02;10.15;;;22.60;99.90;;;;;;5169787;28;20030;-79
2022/06/04 10:43:28;;;;;;;19.85;10.70;;;22.60;99.90;;;;;;5169776;28;20029;-75
2022/06/04 10:46:17;;;;;;;18.83;10.48;;;23.00;99.90;;;;;;5169695;28;20061;-75
2022/06/04 10:49:08;;;;;;;22.15;11.40;;;22.50;99.90;;;;;;5169661;28;20019;-74
2022/06/04 10:51:57;;;;;;;20.73;10.60;;;22.60;99.90;;;;;;5169581;28;20026;-75
2022/06/04 10:54:34;;;;;;;22.23;11.23;;;22.60;99.90;;;;;;5169320;28;20113;-75
2022/06/04 10:57:19;;;;;;;25.88;10.98;;;22.60;99.90;;;;;;5169359;28;20022;-78
2022/06/04 11:00:03;;;;;;;20.77;11.05;;;22.80;99.90;;;;;;5169402;28;20026;-75
2022/06/04 11:02:46;;;;;;;16.48;10.20;;;23.30;99.90;;;;;;5168962;28;20061;-75
2022/06/04 11:05:25;;;;;;;19.42;10.07;;;23.40;99.90;;;;;;5169250;28;20046;-75
2022/06/04 11:08:06;;;;;;;23.33;10.57;;;23.50;99.90;;;;;;5169229;28;20081;-74
2022/06/04 11:10:58;;;;;;;16.92;9.45;;;23.50;99.90;;;;;;5169136;28;20031;-75
2022/06/04 11:13:38;;;;;;;21.00;10.20;;;23.80;99.90;;;;;;5167554;28;20366;-78
2022/06/04 11:16:33;;;;;;;19.83;9.95;;;23.80;99.90;;;;;;5169060;28;20406;-78
2022/06/04 11:19:06;;;;;;;24.63;10.48;;;23.70;99.90;;;;;;5169144;28;20101;-74
2022/06/04 11:21:43;;;;;;;22.83;11.23;;;23.50;99.90;;;;;;5168864;28;20117;-75
2022/06/04 11:24:29;;;;;;;24.27;10.65;;;23.10;99.90;;;;;;5175105;28;20362;-75
2022/06/04 11:27:09;;;;;;;19.02;11.65;;;22.60;99.90;;;;;;5182700;28;20048;-77
2022/06/04 11:29:40;;;;;;;21.90;11.98;;;22.50;99.90;;;;;;5191835;28;20034;-79
2022/06/04 11:32:57;;;;;;;20.42;11.38;;;22.40;99.90;;;;;;5200658;28;20022;-79
2022/06/04 11:35:33;;;;;;;26.75;13.10;;;22.20;99.90;;;;;;5152696;28;20146;-75
2022/06/04 11:38:16;;;;;;;19.48;13.13;;;21.90;99.90;;;;;;5168637;28;20156;-78
2022/06/04 11:41:09;;;;;;;25.17;13.40;;;21.70;99.90;;;;;;5204305;28;20049;-75
2022/06/04 11:44:25;;;;;;;24.83;14.15;;;21.70;99.90;;;;;;5208079;28;20112;-75
2022/06/04 11:47:32;;;;;;;30.77;14.70;;;21.60;99.90;;;;;;5190406;28;20103;-78
2022/06/04 11:50:19;;;;;;;30.40;15.25;;;21.80;99.90;;;;;;5190499;28;20036;-79
2022/06/04 11:53:02;;;;;;;23.95;14.95;;;21.60;99.90;;;;;;5190308;28;20034;-75
2022/06/04 11:55:43;;;;;;;28.67;15.02;;;21.60;99.90;;;;;;5206821;28;20037;-75
2022/06/04 11:58:45;;;;;;;27.70;15.43;;;21.50;99.90;;;;;;5200029;28;20073;-75
2022/06/04 12:01:26;;;;;;;26.13;15.90;;;21.50;99.90;;;;;;5202288;28;20331;-79
2022/06/04 12:04:06;;;;;;;26.95;15.52;;;21.30;99.90;;;;;;5185834;28;20081;-76
2022/06/04 12:07:10;;;;;;;31.33;16.13;;;21.50;99.90;;;;;;5178390;28;20030;-77
2022/06/04 12:09:56;;;;;;;26.15;16.38;;;21.40;99.90;;;;;;5180905;28;20034;-78
2022/06/04 12:12:54;;;;;;;24.20;16.05;;;21.60;99.90;;;;;;5172486;28;20038;-75
2022/06/04 12:15:56;;;;;;;24.55;16.27;;;21.30;99.90;;;;;;5159296;28;20156;-79
2022/06/04 12:18:53;;;;;;;27.15;16.83;;;21.20;99.90;;;;;;5182885;28;20084;-79
2022/06/04 12:24:36;;;;;;;26.02;16.60;;;21.30;99.90;;;;;;5202241;28;20041;-75
2022/06/04 12:27:26;;;;;;;27.60;17.75;;;21.20;99.90;;;;;;5196631;28;20064;-79
2022/06/04 12:29:58;;;;;;;29.08;18.10;;;21.30;99.90;;;;;;5194799;28;20429;-77
2022/06/04 12:32:35;;;;;;;31.70;18.00;;;21.20;99.90;;;;;;5197865;28;20588;-75
2022/06/04 12:35:11;;;;;;;25.65;16.98;;;21.20;99.90;;;;;;5193217;28;20038;-76
2022/06/04 12:37:47;;;;;;;27.58;16.60;;;21.10;99.90;;;;;;5200415;28;20049;-78
2022/06/04 12:40:23;;;;;;;28.20;15.38;;;21.10;99.90;;;;;;5190747;28;20025;-79
2022/06/04 12:43:18;;;;;;;30.38;15.60;;;21.20;99.90;;;;;;5202315;28;20124;-79
2022/06/04 12:45:51;;;;;;;30.98;15.10;;;21.40;99.90;;;;;;5169793;28;20023;-79
2022/06/04 12:48:42;;;;;;;24.48;14.65;;;21.50;99.90;;;;;;5167029;28;20853;-74
2022/06/04 12:51:39;;;;;;;22.55;14.43;;;21.60;99.90;;;;;;5167317;28;20034;-75
2022/06/04 12:54:32;;;;;;;22.75;14.68;;;21.70;99.90;;;;;;5166823;28;20145;-74
2022/06/04 12:57:40;;;;;;;19.42;14.52;;;21.70;99.90;;;;;;5166964;28;20027;-78
2022/06/04 13:00:13;;;;;;;23.25;15.20;;;21.60;99.90;;;;;;5166176;28;20038;-75
2022/06/04 13:03:06;;;;;;;25.38;15.13;;;21.70;99.90;;;;;;5166664;28;20549;-76
2022/06/04 13:05:57;;;;;;;26.10;14.75;;;21.60;99.90;;;;;;5166912;28;20038;-75
2022/06/04 13:08:56;;;;;;;25.27;14.80;;;21.50;99.90;;;;;;5166976;28;20030;-75
2022/06/04 13:11:35;;;;;;;25.67;15.30;;;21.40;99.90;;;;;;5166671;28;20060;-75
2022/06/04 13:14:50;;;;;;;26.92;15.10;;;21.40;99.90;;;;;;5166710;28;20038;-75
2022/06/04 13:17:42;;;;;;;26.70;15.65;;;21.30;99.90;;;;;;5165637;28;20073;-75
2022/06/04 13:20:40;;;;;;;29.92;14.77;;;21.80;99.90;;;;;;5165425;28;20088;-77
2022/06/04 13:23:32;;;;;;;25.30;14.00;;;21.70;99.90;;;;;;5166847;28;20024;-75
2022/06/04 13:26:25;;;;;;;23.55;13.68;;;21.70;99.90;;;;;;5166878;28;20034;-75
2022/06/04 13:28:56;;;;;;;24.63;14.23;;;21.90;99.90;;;;;;5165363;28;20026;-77
2022/06/04 13:31:30;;;;;;;28.38;14.30;;;21.80;99.90;;;;;;5166479;28;20061;-75
2022/06/04 13:34:13;;;;;;;21.20;12.35;;;22.00;99.90;;;;;;5166254;28;20177;-75
2022/06/04 13:36:47;;;;;;;24.85;13.88;;;21.80;99.90;;;;;;5167074;28;20041;-76
2022/06/04 13:39:18;;;;;;;27.05;13.63;;;22.00;99.90;;;;;;5182748;28;20115;-75
2022/06/04 13:42:01;;;;;;;23.33;14.10;;;21.90;99.90;;;;;;5186813;28;20032;-79
2022/06/04 13:44:50;;;;;;;21.48;13.35;;;22.10;99.90;;;;;;5186586;28;20113;-75
2022/06/04 13:47:25;;;;;;;24.27;13.32;;;21.90;99.90;;;;;;5186586;28;20026;-78
2022/06/04 13:50:08;;;;;;;20.65;13.55;;;22.00;99.90;;;;;;5186218;28;20022;-75
2022/06/04 13:52:55;;;;;;;21.58;11.77;;;22.30;99.90;;;;;;5190181;28;20461;-76
2022/06/04 13:55:40;;;;;;;20.73;11.73;;;22.40;99.90;;;;;;5173274;28;20034;-75
2022/06/04 13:58:17;;;;;;;29.88;12.43;;;22.30;99.90;;;;;;5185247;28;20026;-75
2022/06/04 14:00:52;;;;;;;17.38;11.40;;;22.50;99.90;;;;;;5181998;28;20040;-75
2022/06/04 14:03:32;;;;;;;26.38;12.30;;;22.20;99.90;;;;;;5168005;28;20054;-75
2022/06/04 14:06:04;;;;;;;18.30;12.60;;;22.00;99.90;;;;;;5166027;28;20018;-75
2022/06/04 14:08:54;;;;;;;18.10;11.80;;;22.10;99.90;;;;;;5170931;28;20073;-75
2022/06/04 14:11:51;;;;;;;24.45;14.02;;;22.10;99.90;;;;;;5176917;28;20022;-78
2022/06/04 14:14:52;;;;;;;27.48;13.77;;;21.80;99.90;;;;;;5164955;28;20379;-83
2022/06/04 14:17:36;;;;;;;25.77;13.57;;;22.10;99.90;;;;;;5169299;28;20023;-84
2022/06/04 14:20:14;;;;;;;23.05;13.55;;;22.00;99.90;;;;;;5178690;28;20022;-84
2022/06/04 14:23:15;;;;;;;21.98;14.32;;;21.70;99.90;;;;;;5176601;28;20023;-82
2022/06/04 14:26:25;;;;;;;23.02;12.82;;;21.60;99.90;;;;;;5164900;28;20494;-80
2022/06/04 14:29:00;;;;;;;25.00;12.60;;;21.60;99.90;;;;;;5184294;28;20030;-79
2022/06/04 14:31:54;;;;;;;20.17;12.25;;;21.60;99.90;;;;;;5166454;28;20368;-85
2022/06/04 14:34:35;;;;;;;25.85;12.65;;;21.80;99.90;;;;;;5180929;28;20525;-83
2022/06/04 14:37:08;;;;;;;21.00;13.57;;;21.80;99.90;;;;;;5164720;28;20026;-82
2022/06/04 14:39:43;;;;;;;38.17;13.98;;;21.70;99.90;;;;;;5177833;28;20034;-82
2022/06/04 14:42:36;;;;;;;25.38;13.65;;;21.50;99.90;;;;;;5174209;28;20027;-82
2022/06/04 14:45:30;;;;;;;28.60;14.00;;;21.60;99.90;;;;;;5165726;28;20360;-81
2022/06/04 14:48:07;;;;;;;23.90;14.65;;;21.70;99.90;;;;;;5164337;28;20022;-83
2022/06/04 14:50:59;;;;;;;22.30;14.05;;;21.60;99.90;;;;;;5142810;28;20396;-80
2022/06/04 14:53:31;;;;;;;21.15;13.75;;;21.60;99.90;;;;;;5174196;28;20153;-84
2022/06/04 14:56:22;;;;;;;33.72;14.80;;;21.60;99.90;;;;;;5165734;28;20478;-82